Time;durP1;ratioP1;P1;durP2;ratioP2;P2;SDS_P1;SDS_P2;PMS_P1;PMS_P2;Temp;Humidity;BMP_temperature;BMP_pressure;BME280_temperature;BME280_humidity;BME280_pressure;Samples;Min_cycle;Max_cycle;Signal;HPM_P1;HPM_P2
2023/10/21 00:00:04;;;;;;;13.02;8.43;;;;;;;;;;2064359;28;20027;-78
2023/10/21 00:01:25;;;;;;;16.48;8.00;;;;;;;;;;2068648;28;20405;-77
2023/10/21 00:02:46;;;;;;;15.20;8.85;;;;;;;;;;2056237;28;20093;-78
2023/10/21 00:04:08;;;;;;;10.05;7.82;;;;;;;;;;2067552;28;20026;-78
2023/10/21 00:05:29;;;;;;;14.73;8.85;;;;;;;;;;2069681;28;20026;-78
2023/10/21 00:06:49;;;;;;;10.20;7.63;;;;;;;;;;2072423;28;20026;-78
2023/10/21 00:08:10;;;;;;;11.30;7.80;;;;;;;;;;2066356;28;20026;-78
2023/10/21 00:09:31;;;;;;;13.30;8.75;;;;;;;;;;2067103;28;20042;-78
2023/10/21 00:11:05;;;;;;;13.48;8.38;;;;;;;;;;2063291;28;20390;-78
2023/10/21 00:12:26;;;;;;;15.93;8.85;;;;;;;;;;2057277;28;20038;-78
2023/10/21 00:13:47;;;;;;;10.77;8.30;;;;;;;;;;2057945;28;20343;-78
2023/10/21 00:15:08;;;;;;;12.93;8.43;;;;;;;;;;2059738;28;20053;-78
2023/10/21 00:16:28;;;;;;;11.05;8.70;;;;;;;;;;2058528;28;20077;-78
2023/10/21 00:17:49;;;;;;;12.25;8.23;;;;;;;;;;2062782;28;20043;-77
2023/10/21 00:19:14;;;;;;;14.60;8.68;;;;;;;;;;2062296;28;20030;-77
2023/10/21 00:20:35;;;;;;;13.50;8.27;;;;;;;;;;2053096;28;20035;-77
2023/10/21 00:21:55;;;;;;;11.38;8.35;;;;;;;;;;2055129;28;20498;-78
2023/10/21 00:23:16;;;;;;;11.13;8.63;;;;;;;;;;2051752;28;20039;-78
2023/10/21 00:24:37;;;;;;;12.60;7.88;;;;;;;;;;2058179;28;20434;-78
2023/10/21 00:26:01;;;;;;;21.77;8.85;;;;;;;;;;2055124;28;20035;-78
2023/10/21 00:27:22;;;;;;;13.20;8.15;;;;;;;;;;2058975;28;20078;-78
2023/10/21 00:28:43;;;;;;;13.73;8.20;;;;;;;;;;2050271;28;20517;-78
2023/10/21 00:30:05;;;;;;;12.25;8.23;;;;;;;;;;2060362;28;20041;-78
2023/10/21 00:31:25;;;;;;;14.18;8.60;;;;;;;;;;2056058;28;20023;-78
2023/10/21 00:32:46;;;;;;;12.93;8.32;;;;;;;;;;2068835;28;20034;-78
2023/10/21 00:34:07;;;;;;;15.85;8.85;;;;;;;;;;2061314;28;20414;-78
2023/10/21 00:35:28;;;;;;;13.80;8.05;;;;;;;;;;2068808;28;20041;-77
2023/10/21 00:36:49;;;;;;;13.65;7.93;;;;;;;;;;2065195;28;20094;-77
2023/10/21 00:38:10;;;;;;;13.57;9.15;;;;;;;;;;2064433;28;20030;-78
2023/10/21 00:39:34;;;;;;;15.65;9.63;;;;;;;;;;2063433;28;20077;-78
2023/10/21 00:40:56;;;;;;;13.90;9.18;;;;;;;;;;2065459;28;20027;-77
2023/10/21 00:42:17;;;;;;;16.75;9.98;;;;;;;;;;2056338;28;20031;-76
2023/10/21 00:43:40;;;;;;;19.33;10.00;;;;;;;;;;2056398;28;20042;-77
2023/10/21 00:45:03;;;;;;;16.08;9.20;;;;;;;;;;2064198;28;20027;-77
2023/10/21 00:46:26;;;;;;;16.33;9.77;;;;;;;;;;2072283;28;20030;-77
2023/10/21 00:47:47;;;;;;;17.10;9.55;;;;;;;;;;2072990;28;20030;-78
2023/10/21 00:49:08;;;;;;;20.42;10.07;;;;;;;;;;2075380;28;20088;-78
2023/10/21 00:50:29;;;;;;;14.88;9.70;;;;;;;;;;2064579;28;20422;-78
2023/10/21 00:51:50;;;;;;;19.52;11.45;;;;;;;;;;2074265;28;20033;-77
2023/10/21 00:53:11;;;;;;;15.38;9.90;;;;;;;;;;2064752;28;20038;-78
2023/10/21 00:54:31;;;;;;;14.43;10.57;;;;;;;;;;2062025;28;20490;-78
2023/10/21 00:55:52;;;;;;;16.38;10.05;;;;;;;;;;2064700;28;20038;-78
2023/10/21 00:57:14;;;;;;;21.73;11.27;;;;;;;;;;2072703;28;20042;-78
2023/10/21 00:58:35;;;;;;;21.45;10.68;;;;;;;;;;2067504;28;20030;-78
2023/10/21 00:59:56;;;;;;;21.85;11.02;;;;;;;;;;2065226;28;20404;-77
2023/10/21 01:01:17;;;;;;;17.30;10.50;;;;;;;;;;2067458;28;20041;-77
2023/10/21 01:02:39;;;;;;;15.25;10.60;;;;;;;;;;2063550;28;20042;-77
2023/10/21 01:04:02;;;;;;;19.15;10.48;;;;;;;;;;2070086;28;20397;-77
2023/10/21 01:05:23;;;;;;;14.85;9.85;;;;;;;;;;2057651;28;20023;-77
2023/10/21 01:06:43;;;;;;;24.48;9.90;;;;;;;;;;2063141;28;20023;-77
2023/10/21 01:08:05;;;;;;;17.80;10.48;;;;;;;;;;2061007;28;20168;-78
2023/10/21 01:09:27;;;;;;;22.88;11.32;;;;;;;;;;2060846;28;20030;-77
2023/10/21 01:10:48;;;;;;;23.60;10.05;;;;;;;;;;2057017;28;20039;-77
2023/10/21 01:12:09;;;;;;;18.45;9.43;;;;;;;;;;2065850;28;20041;-77
2023/10/21 01:13:30;;;;;;;17.85;10.60;;;;;;;;;;2065323;28;20034;-77
2023/10/21 01:14:52;;;;;;;17.30;10.30;;;;;;;;;;2063775;28;20030;-77
2023/10/21 01:16:13;;;;;;;20.35;10.90;;;;;;;;;;2070865;28;20041;-77
2023/10/21 01:17:34;;;;;;;17.77;10.35;;;;;;;;;;2056932;28;20053;-77
2023/10/21 01:18:55;;;;;;;17.63;10.85;;;;;;;;;;2059312;28;20034;-77
2023/10/21 01:20:19;;;;;;;16.60;10.07;;;;;;;;;;2069901;28;20030;-77
2023/10/21 01:21:40;;;;;;;17.20;10.60;;;;;;;;;;2073706;28;20045;-77
2023/10/21 01:23:01;;;;;;;17.27;9.68;;;;;;;;;;2071981;28;20401;-76
2023/10/21 01:24:22;;;;;;;18.40;9.85;;;;;;;;;;2075673;28;20500;-77
2023/10/21 01:25:43;;;;;;;17.02;8.45;;;;;;;;;;2065566;28;20043;-77
2023/10/21 01:27:04;;;;;;;16.02;10.02;;;;;;;;;;2078793;28;20570;-77
2023/10/21 01:28:26;;;;;;;15.63;8.48;;;;;;;;;;2065777;28;20058;-77
2023/10/21 01:29:46;;;;;;;13.93;8.65;;;;;;;;;;2058214;28;20035;-77
2023/10/21 01:31:07;;;;;;;16.40;9.52;;;;;;;;;;2063243;28;20041;-77
2023/10/21 01:32:29;;;;;;;19.77;10.32;;;;;;;;;;2053056;28;20058;-77
2023/10/21 01:33:50;;;;;;;13.15;9.60;;;;;;;;;;2055250;28;20043;-78
2023/10/21 01:35:11;;;;;;;17.23;9.68;;;;;;;;;;2068214;28;20022;-77
2023/10/21 01:36:32;;;;;;;19.75;10.23;;;;;;;;;;2065252;28;20496;-77
2023/10/21 01:37:53;;;;;;;15.35;9.98;;;;;;;;;;2069685;28;20033;-77
2023/10/21 01:39:14;;;;;;;15.80;10.48;;;;;;;;;;2067780;28;20442;-77
2023/10/21 01:40:35;;;;;;;12.80;9.00;;;;;;;;;;2059121;28;20082;-77
2023/10/21 01:41:56;;;;;;;15.93;9.82;;;;;;;;;;2074560;28;20026;-77
2023/10/21 01:43:17;;;;;;;19.10;10.93;;;;;;;;;;2058474;28;20039;-77
2023/10/21 01:44:38;;;;;;;17.58;10.70;;;;;;;;;;2060828;28;20033;-77
2023/10/21 01:46:02;;;;;;;15.77;8.98;;;;;;;;;;2066047;28;20113;-78
2023/10/21 01:47:23;;;;;;;14.63;9.52;;;;;;;;;;2071403;28;20540;-77
2023/10/21 01:48:44;;;;;;;18.67;9.18;;;;;;;;;;2063140;28;20037;-77
2023/10/21 01:50:08;;;;;;;17.52;10.10;;;;;;;;;;2068431;28;20027;-77
2023/10/21 01:51:29;;;;;;;17.58;10.20;;;;;;;;;;2067141;28;20060;-77
2023/10/21 01:52:50;;;;;;;21.00;9.93;;;;;;;;;;2055602;28;20039;-77
2023/10/21 01:54:11;;;;;;;14.98;10.15;;;;;;;;;;2053925;28;20035;-77
2023/10/21 01:55:33;;;;;;;17.35;10.85;;;;;;;;;;2055207;28;20043;-77
2023/10/21 01:56:54;;;;;;;21.73;10.45;;;;;;;;;;2066309;28;20038;-77
2023/10/21 01:58:15;;;;;;;19.50;10.55;;;;;;;;;;2072725;28;20026;-77
2023/10/21 01:59:39;;;;;;;15.65;9.80;;;;;;;;;;2059994;28;20034;-77
2023/10/21 02:01:07;;;;;;;15.85;10.27;;;;;;;;;;2059256;28;20042;-77
2023/10/21 02:02:28;;;;;;;16.48;10.15;;;;;;;;;;2057671;28;20065;-77
2023/10/21 02:03:49;;;;;;;19.10;10.20;;;;;;;;;;2057184;28;20047;-78
2023/10/21 02:05:10;;;;;;;22.60;10.70;;;;;;;;;;2065443;28;20442;-77
2023/10/21 02:06:31;;;;;;;19.35;10.68;;;;;;;;;;2065351;28;20042;-77
2023/10/21 02:07:52;;;;;;;22.75;11.57;;;;;;;;;;2057845;28;20019;-77
2023/10/21 02:09:13;;;;;;;20.40;11.27;;;;;;;;;;2061881;28;20034;-78
2023/10/21 02:10:38;;;;;;;17.95;10.27;;;;;;;;;;2063948;28;20502;-77
2023/10/21 02:11:59;;;;;;;17.77;10.93;;;;;;;;;;2062113;28;20403;-77
2023/10/21 02:13:20;;;;;;;20.05;10.98;;;;;;;;;;2063660;28;20034;-77
2023/10/21 02:14:41;;;;;;;19.15;11.38;;;;;;;;;;2068132;28;20042;-77
2023/10/21 02:16:08;;;;;;;18.48;10.15;;;;;;;;;;2066662;28;20035;-77
2023/10/21 02:17:29;;;;;;;16.77;10.13;;;;;;;;;;2057746;28;20023;-77
2023/10/21 02:18:50;;;;;;;19.30;11.70;;;;;;;;;;2058649;28;20023;-77
2023/10/21 02:20:14;;;;;;;20.63;11.32;;;;;;;;;;2064992;28;20397;-77
2023/10/21 02:21:35;;;;;;;17.25;11.07;;;;;;;;;;2072379;28;20030;-77
2023/10/21 02:22:56;;;;;;;23.45;11.25;;;;;;;;;;2074401;28;20033;-77
2023/10/21 02:24:17;;;;;;;18.40;12.32;;;;;;;;;;2071121;28;20370;-77
2023/10/21 02:25:38;;;;;;;17.42;10.75;;;;;;;;;;2063195;28;20112;-77
2023/10/21 02:26:59;;;;;;;14.07;9.32;;;;;;;;;;2063062;28;20613;-77
2023/10/21 02:28:20;;;;;;;15.82;10.63;;;;;;;;;;2055895;28;20035;-78
2023/10/21 02:29:41;;;;;;;18.27;10.50;;;;;;;;;;2061304;28;20050;-78
2023/10/21 02:31:03;;;;;;;16.23;9.82;;;;;;;;;;2065830;28;20053;-77
2023/10/21 02:32:24;;;;;;;;;;;;;;;;;;2068691;28;20022;-77
2023/10/21 02:33:44;;;;;;;16.55;9.75;;;;;;;;;;2065274;28;19909;-78
2023/10/21 02:35:05;;;;;;;19.75;10.05;;;;;;;;;;2068839;28;20096;-77
2023/10/21 02:36:26;;;;;;;18.85;10.18;;;;;;;;;;2068546;28;20045;-77
2023/10/21 02:37:47;;;;;;;19.65;10.90;;;;;;;;;;2062174;28;20037;-77
2023/10/21 02:39:08;;;;;;;14.77;8.85;;;;;;;;;;2064782;28;20034;-77
2023/10/21 02:40:29;;;;;;;14.88;10.07;;;;;;;;;;2069271;28;20038;-78
2023/10/21 02:41:50;;;;;;;14.48;9.38;;;;;;;;;;2065555;28;20039;-78
2023/10/21 02:43:11;;;;;;;17.20;9.85;;;;;;;;;;2069211;28;20042;-77
2023/10/21 02:44:32;;;;;;;19.67;10.57;;;;;;;;;;2065785;28;20549;-78
2023/10/21 02:45:53;;;;;;;13.95;9.77;;;;;;;;;;2068476;28;20034;-77
2023/10/21 02:47:14;;;;;;;14.75;10.30;;;;;;;;;;2056423;28;20027;-77
2023/10/21 02:48:34;;;;;;;17.67;10.25;;;;;;;;;;2057007;28;20038;-77
2023/10/21 02:49:55;;;;;;;17.10;10.10;;;;;;;;;;2062513;28;20394;-77
2023/10/21 02:51:17;;;;;;;19.63;10.30;;;;;;;;;;2071224;28;20030;-78
2023/10/21 02:52:38;;;;;;;19.23;9.98;;;;;;;;;;2055457;28;20570;-78
2023/10/21 02:53:59;;;;;;;19.00;10.38;;;;;;;;;;2069602;28;20446;-78
2023/10/21 02:55:20;;;;;;;16.25;9.43;;;;;;;;;;2068327;28;20045;-78
2023/10/21 02:56:41;;;;;;;14.77;9.65;;;;;;;;;;2069191;28;20037;-78
2023/10/21 02:58:02;;;;;;;16.73;9.00;;;;;;;;;;2068886;28;20041;-78
2023/10/21 02:59:23;;;;;;;15.85;8.80;;;;;;;;;;2067430;28;20060;-76
2023/10/21 03:00:44;;;;;;;16.70;10.68;;;;;;;;;;2058815;28;20042;-77
2023/10/21 03:02:05;;;;;;;16.95;9.48;;;;;;;;;;2068798;28;20078;-78
2023/10/21 03:03:26;;;;;;;18.05;9.73;;;;;;;;;;2067461;28;20046;-77
2023/10/21 03:04:47;;;;;;;16.17;9.95;;;;;;;;;;2070228;28;20023;-77
2023/10/21 03:06:08;;;;;;;16.65;8.73;;;;;;;;;;2070919;28;20041;-77
2023/10/21 03:07:29;;;;;;;13.20;9.32;;;;;;;;;;2061318;28;20030;-77
2023/10/21 03:08:50;;;;;;;16.00;9.00;;;;;;;;;;2059778;28;20026;-78
2023/10/21 03:10:11;;;;;;;14.75;10.30;;;;;;;;;;2064345;28;20022;-77
2023/10/21 03:11:32;;;;;;;11.63;8.30;;;;;;;;;;2068429;28;20037;-77
2023/10/21 03:12:53;;;;;;;16.08;9.50;;;;;;;;;;2061126;28;20039;-77
2023/10/21 03:14:14;;;;;;;16.80;9.60;;;;;;;;;;2060973;28;20542;-78
2023/10/21 03:15:35;;;;;;;15.32;9.43;;;;;;;;;;2056650;28;20031;-77
2023/10/21 03:16:56;;;;;;;16.77;8.60;;;;;;;;;;2057981;28;20039;-78
2023/10/21 03:18:16;;;;;;;13.18;9.10;;;;;;;;;;2058835;28;20377;-78
2023/10/21 03:19:37;;;;;;;14.93;9.48;;;;;;;;;;2054590;28;20042;-78
2023/10/21 03:20:58;;;;;;;14.50;9.10;;;;;;;;;;2057568;28;20042;-78
2023/10/21 03:22:19;;;;;;;20.38;9.00;;;;;;;;;;2057205;28;20039;-78
2023/10/21 03:23:40;;;;;;;16.33;8.23;;;;;;;;;;2059372;28;20042;-79
2023/10/21 03:25:02;;;;;;;14.27;8.73;;;;;;;;;;2061502;28;20687;-78
2023/10/21 03:26:23;;;;;;;17.70;10.05;;;;;;;;;;2065546;28;20482;-78
2023/10/21 03:27:45;;;;;;;14.13;8.75;;;;;;;;;;2064908;28;20061;-78
2023/10/21 03:29:08;;;;;;;15.82;9.10;;;;;;;;;;2062762;28;20081;-78
2023/10/21 03:30:28;;;;;;;;;;;;;;;;;;2062911;28;20031;-78
2023/10/21 03:31:49;;;;;;;13.00;7.75;;;;;;;;;;2062152;28;20412;-79
2023/10/21 03:33:10;;;;;;;12.80;8.48;;;;;;;;;;2068599;28;20037;-78
2023/10/21 03:34:34;;;;;;;12.55;8.45;;;;;;;;;;2063091;28;20030;-78
2023/10/21 03:35:55;;;;;;;13.07;7.80;;;;;;;;;;2060856;28;20027;-79
2023/10/21 03:37:16;;;;;;;16.25;8.73;;;;;;;;;;2070758;28;20401;-79
2023/10/21 03:38:37;;;;;;;14.83;8.80;;;;;;;;;;2070427;28;20052;-78
2023/10/21 03:39:58;;;;;;;10.18;8.38;;;;;;;;;;2067352;28;20800;-79
2023/10/21 03:41:19;;;;;;;13.65;7.93;;;;;;;;;;2067164;28;20038;-78
2023/10/21 03:42:40;;;;;;;17.98;9.27;;;;;;;;;;2075859;28;20041;-79
2023/10/21 03:44:03;;;;;;;15.98;9.32;;;;;;;;;;2070368;28;20057;-78
2023/10/21 03:45:24;;;;;;;11.63;8.13;;;;;;;;;;2059339;28;20410;-78
2023/10/21 03:46:45;;;;;;;11.90;8.73;;;;;;;;;;2071672;28;20030;-79
2023/10/21 03:48:09;;;;;;;14.52;8.30;;;;;;;;;;2069523;28;20041;-78
2023/10/21 03:49:30;;;;;;;18.08;9.80;;;;;;;;;;2075135;28;20041;-78
2023/10/21 03:50:51;;;;;;;18.52;8.63;;;;;;;;;;2061343;28;20023;-79
2023/10/21 03:52:12;;;;;;;12.85;8.73;;;;;;;;;;2056703;28;20031;-78
2023/10/21 03:53:33;;;;;;;13.43;8.27;;;;;;;;;;2056673;28;20050;-78
2023/10/21 03:54:54;;;;;;;16.55;8.18;;;;;;;;;;2068884;28;20022;-78
2023/10/21 03:56:15;;;;;;;13.85;8.25;;;;;;;;;;2067031;28;20053;-78
2023/10/21 03:57:36;;;;;;;12.35;8.35;;;;;;;;;;2062242;28;20034;-77
2023/10/21 03:58:57;;;;;;;13.98;9.13;;;;;;;;;;2065524;28;20031;-77
2023/10/21 04:00:18;;;;;;;13.15;8.68;;;;;;;;;;2061699;28;20035;-77
2023/10/21 04:01:39;;;;;;;15.48;8.02;;;;;;;;;;2072936;28;20056;-77
2023/10/21 04:03:00;;;;;;;16.35;9.20;;;;;;;;;;2062048;28;20050;-77
2023/10/21 04:04:21;;;;;;;16.35;8.30;;;;;;;;;;2057078;28;20034;-77
2023/10/21 04:05:42;;;;;;;14.43;8.57;;;;;;;;;;2052387;28;20426;-76
2023/10/21 04:07:04;;;;;;;19.05;8.32;;;;;;;;;;2058107;28;20027;-77
2023/10/21 04:08:25;;;;;;;12.63;8.70;;;;;;;;;;2053439;28;20039;-76
2023/10/21 04:09:46;;;;;;;21.08;9.02;;;;;;;;;;2060202;28;20026;-76
2023/10/21 04:11:08;;;;;;;19.58;8.63;;;;;;;;;;2063377;28;20106;-77
2023/10/21 04:12:29;;;;;;;14.52;9.15;;;;;;;;;;2050637;28;20031;-77
2023/10/21 04:13:50;;;;;;;19.38;8.90;;;;;;;;;;2061803;28;20048;-78
2023/10/21 04:15:11;;;;;;;11.40;8.30;;;;;;;;;;2063353;28;20054;-78
2023/10/21 04:16:32;;;;;;;15.82;8.48;;;;;;;;;;2056216;28;20030;-78
2023/10/21 04:17:53;;;;;;;17.92;9.10;;;;;;;;;;2064536;28;20122;-78
2023/10/21 04:19:15;;;;;;;15.25;8.30;;;;;;;;;;2062510;28;20470;-77
2023/10/21 04:20:36;;;;;;;;;;;;;;;;;;2053581;28;20027;-77
2023/10/21 04:21:58;;;;;;;14.10;8.30;;;;;;;;;;2053952;28;19906;-78
2023/10/21 04:23:19;;;;;;;14.68;7.90;;;;;;;;;;2055328;28;20035;-78
2023/10/21 04:24:40;;;;;;;12.50;8.70;;;;;;;;;;2051772;28;20042;-78
2023/10/21 04:26:02;;;;;;;16.65;8.93;;;;;;;;;;2055699;28;20030;-78
2023/10/21 04:27:22;;;;;;;18.33;7.78;;;;;;;;;;2060693;28;20085;-78
2023/10/21 04:28:43;;;;;;;16.10;8.20;;;;;;;;;;2069294;28;20052;-78
2023/10/21 04:30:05;;;;;;;16.35;7.93;;;;;;;;;;2056886;28;20035;-80
2023/10/21 04:31:31;;;;;;;12.45;7.47;;;;;;;;;;2054134;28;20037;-78
2023/10/21 04:32:52;;;;;;;14.25;8.63;;;;;;;;;;2056652;28;20038;-78
2023/10/21 04:34:13;;;;;;;11.13;6.85;;;;;;;;;;2063620;28;20034;-78
2023/10/21 04:35:34;;;;;;;17.90;7.85;;;;;;;;;;2072111;28;20041;-79
2023/10/21 04:36:55;;;;;;;14.35;8.60;;;;;;;;;;2064367;28;20041;-78
2023/10/21 04:38:16;;;;;;;13.63;7.80;;;;;;;;;;2069972;28;20056;-78
2023/10/21 04:39:37;;;;;;;11.50;8.45;;;;;;;;;;2064652;28;20030;-77
2023/10/21 04:40:58;;;;;;;15.57;8.57;;;;;;;;;;2069146;28;20034;-77
2023/10/21 04:42:19;;;;;;;11.45;7.72;;;;;;;;;;2068624;28;20402;-78
2023/10/21 04:43:40;;;;;;;10.98;7.22;;;;;;;;;;2065045;28;20057;-77
2023/10/21 04:45:00;;;;;;;14.45;7.68;;;;;;;;;;2069894;28;20041;-78
2023/10/21 04:46:21;;;;;;;14.90;7.97;;;;;;;;;;2070962;28;20540;-77
2023/10/21 04:47:43;;;;;;;8.82;7.35;;;;;;;;;;2073418;28;20030;-77
2023/10/21 04:49:04;;;;;;;10.68;7.05;;;;;;;;;;2065309;28;20509;-77
2023/10/21 04:50:25;;;;;;;11.30;9.00;;;;;;;;;;2070001;28;20053;-78
2023/10/21 04:51:46;;;;;;;15.23;8.20;;;;;;;;;;2064442;28;20445;-77
2023/10/21 04:53:07;;;;;;;14.98;8.00;;;;;;;;;;2070373;28;20129;-77
2023/10/21 04:54:28;;;;;;;14.68;8.25;;;;;;;;;;2063059;28;20038;-77
2023/10/21 04:55:49;;;;;;;10.55;7.55;;;;;;;;;;2077804;28;20021;-77
2023/10/21 04:57:10;;;;;;;11.98;8.07;;;;;;;;;;2072415;28;20409;-77
2023/10/21 04:58:31;;;;;;;14.05;7.85;;;;;;;;;;2064666;28;20038;-78
2023/10/21 04:59:52;;;;;;;15.15;7.88;;;;;;;;;;2061534;28;20030;-77
2023/10/21 05:01:16;;;;;;;13.02;8.82;;;;;;;;;;2076042;28;20030;-77
2023/10/21 05:02:37;;;;;;;14.30;7.13;;;;;;;;;;2065564;28;20109;-78
2023/10/21 05:03:57;;;;;;;12.63;7.07;;;;;;;;;;2065511;28;20042;-77
2023/10/21 05:05:18;;;;;;;10.93;7.20;;;;;;;;;;2063301;28;20548;-77
2023/10/21 05:06:39;;;;;;;11.00;7.63;;;;;;;;;;2067229;28;20054;-77
2023/10/21 05:08:01;;;;;;;16.27;7.55;;;;;;;;;;2064641;28;20034;-77
2023/10/21 05:09:22;;;;;;;12.73;8.25;;;;;;;;;;2064637;28;20041;-77
2023/10/21 05:10:43;;;;;;;11.40;8.13;;;;;;;;;;2062888;28;20026;-77
2023/10/21 05:12:04;;;;;;;11.82;7.70;;;;;;;;;;2075919;28;20060;-78
2023/10/21 05:13:25;;;;;;;12.77;8.00;;;;;;;;;;2064056;28;20042;-77
2023/10/21 05:14:46;;;;;;;15.80;8.38;;;;;;;;;;2068440;28;20030;-77
2023/10/21 05:16:07;;;;;;;16.38;7.45;;;;;;;;;;2063572;28;20026;-77
2023/10/21 05:17:27;;;;;;;21.67;7.60;;;;;;;;;;2079341;28;20038;-77
2023/10/21 05:18:48;;;;;;;16.10;8.35;;;;;;;;;;2073357;28;20037;-77
2023/10/21 05:20:09;;;;;;;13.82;8.20;;;;;;;;;;2070537;28;20064;-77
2023/10/21 05:21:31;;;;;;;13.48;8.02;;;;;;;;;;2073129;28;20034;-77
2023/10/21 05:22:52;;;;;;;10.63;7.53;;;;;;;;;;2074459;28;20377;-77
2023/10/21 05:24:13;;;;;;;12.50;8.13;;;;;;;;;;2071026;28;20027;-77
2023/10/21 05:25:34;;;;;;;12.38;8.10;;;;;;;;;;2062005;28;20592;-77
2023/10/21 05:26:55;;;;;;;12.35;8.02;;;;;;;;;;2060844;28;20450;-78
2023/10/21 05:28:16;;;;;;;11.82;7.68;;;;;;;;;;2057538;28;20102;-78
2023/10/21 05:29:37;;;;;;;15.48;7.65;;;;;;;;;;2066090;28;20053;-78
2023/10/21 05:30:58;;;;;;;13.05;7.47;;;;;;;;;;2066956;28;20034;-78
2023/10/21 05:32:19;;;;;;;11.70;7.45;;;;;;;;;;2072332;28;20030;-78
2023/10/21 05:33:40;;;;;;;14.48;7.60;;;;;;;;;;2066870;28;20042;-78
2023/10/21 05:35:01;;;;;;;11.80;7.00;;;;;;;;;;2063629;28;20033;-78
2023/10/21 05:36:21;;;;;;;16.65;7.70;;;;;;;;;;2072168;28;20042;-78
2023/10/21 05:37:42;;;;;;;14.00;6.72;;;;;;;;;;2065536;28;20026;-78
2023/10/21 05:39:04;;;;;;;13.20;7.85;;;;;;;;;;2064696;28;20049;-78
2023/10/21 05:40:25;;;;;;;17.25;7.07;;;;;;;;;;2061727;28;20035;-78
2023/10/21 05:41:46;;;;;;;10.37;6.67;;;;;;;;;;2069887;28;20036;-78
2023/10/21 05:43:07;;;;;;;9.65;7.05;;;;;;;;;;2066250;28;20456;-78
2023/10/21 05:44:27;;;;;;;13.07;7.50;;;;;;;;;;2065156;28;20034;-78
2023/10/21 05:45:48;;;;;;;11.27;6.50;;;;;;;;;;2066091;28;20031;-78
2023/10/21 05:47:09;;;;;;;13.27;7.53;;;;;;;;;;2061152;28;20038;-78
2023/10/21 05:48:30;;;;;;;9.88;6.65;;;;;;;;;;2062019;28;20162;-78
2023/10/21 05:49:51;;;;;;;10.52;6.93;;;;;;;;;;2062399;28;20018;-78
2023/10/21 05:51:12;;;;;;;14.30;7.80;;;;;;;;;;2068273;28;20031;-78
2023/10/21 05:52:33;;;;;;;12.68;7.00;;;;;;;;;;2064746;28;20445;-78
2023/10/21 05:53:54;;;;;;;12.75;7.20;;;;;;;;;;2067824;28;20131;-78
2023/10/21 05:55:15;;;;;;;12.27;7.60;;;;;;;;;;2067635;28;20030;-78
2023/10/21 05:56:36;;;;;;;10.88;7.15;;;;;;;;;;2064224;28;20494;-78
2023/10/21 05:57:57;;;;;;;11.82;7.40;;;;;;;;;;2068136;28;20037;-78
2023/10/21 05:59:17;;;;;;;18.52;7.40;;;;;;;;;;2066643;28;20435;-78
2023/10/21 06:00:38;;;;;;;11.80;7.95;;;;;;;;;;2065314;28;20046;-78
2023/10/21 06:01:59;;;;;;;13.10;7.68;;;;;;;;;;2068341;28;20038;-78
2023/10/21 06:03:20;;;;;;;15.95;8.85;;;;;;;;;;2062435;28;20118;-76
2023/10/21 06:04:41;;;;;;;12.82;7.28;;;;;;;;;;2062088;28;20065;-78
2023/10/21 06:06:02;;;;;;;12.50;7.97;;;;;;;;;;2055920;28;20033;-78
2023/10/21 06:07:23;;;;;;;15.40;7.25;;;;;;;;;;2059290;28;20036;-78
2023/10/21 06:08:44;;;;;;;13.02;7.32;;;;;;;;;;2056941;28;20022;-77
2023/10/21 06:10:06;;;;;;;16.33;8.55;;;;;;;;;;2060610;28;20026;-78
2023/10/21 06:11:26;;;;;;;17.33;8.57;;;;;;;;;;2058532;28;20053;-77
2023/10/21 06:12:47;;;;;;;13.75;8.25;;;;;;;;;;2053505;28;20031;-78
2023/10/21 06:14:08;;;;;;;15.95;8.45;;;;;;;;;;2064810;28;20552;-78
2023/10/21 06:15:29;;;;;;;12.50;8.48;;;;;;;;;;2064259;28;20034;-77
2023/10/21 06:16:50;;;;;;;16.92;8.73;;;;;;;;;;2063535;28;20038;-78
2023/10/21 06:18:11;;;;;;;15.07;7.97;;;;;;;;;;2070763;28;20033;-77
2023/10/21 06:19:32;;;;;;;16.10;7.78;;;;;;;;;;2065486;28;20034;-77
2023/10/21 06:20:53;;;;;;;17.83;8.43;;;;;;;;;;2068011;28;20389;-77
2023/10/21 06:22:14;;;;;;;14.25;8.05;;;;;;;;;;2066133;28;20027;-77
2023/10/21 06:23:35;;;;;;;17.63;8.38;;;;;;;;;;2063286;28;20560;-77
2023/10/21 06:24:56;;;;;;;12.77;8.23;;;;;;;;;;2063101;28;20089;-77
2023/10/21 06:26:17;;;;;;;15.57;8.98;;;;;;;;;;2059307;28;20026;-77
2023/10/21 06:27:37;;;;;;;16.40;8.18;;;;;;;;;;2059202;28;20035;-78
2023/10/21 06:28:59;;;;;;;10.05;7.32;;;;;;;;;;2064186;28;20030;-78
2023/10/21 06:30:20;;;;;;;13.98;8.60;;;;;;;;;;2064528;28;20046;-77
2023/10/21 06:31:40;;;;;;;12.63;8.02;;;;;;;;;;2069703;28;20034;-77
2023/10/21 06:33:03;;;;;;;21.80;8.38;;;;;;;;;;2063131;28;20026;-77
2023/10/21 06:34:23;;;;;;;;;;;;;;;;;;2061733;28;20034;-77
2023/10/21 06:35:44;;;;;;;18.42;8.65;;;;;;;;;;2052073;28;19906;-77
2023/10/21 06:37:05;;;;;;;18.30;8.70;;;;;;;;;;2055351;28;20427;-77
2023/10/21 06:38:26;;;;;;;17.13;8.50;;;;;;;;;;2054679;28;20035;-78
2023/10/21 06:39:47;;;;;;;17.85;9.60;;;;;;;;;;2050636;28;20054;-78
2023/10/21 06:41:10;;;;;;;19.00;9.18;;;;;;;;;;2055503;28;20038;-78
2023/10/21 06:42:31;;;;;;;18.42;8.77;;;;;;;;;;2055880;28;20081;-78
2023/10/21 06:43:52;;;;;;;15.85;8.77;;;;;;;;;;2060385;28;20048;-77
2023/10/21 06:45:13;;;;;;;18.88;8.43;;;;;;;;;;2052708;28;20082;-77
2023/10/21 06:46:34;;;;;;;18.83;8.93;;;;;;;;;;2061521;28;20070;-77
2023/10/21 06:47:55;;;;;;;13.80;8.10;;;;;;;;;;2065424;28;20105;-78
2023/10/21 06:49:16;;;;;;;16.52;8.77;;;;;;;;;;2067850;28;20033;-78
2023/10/21 06:50:37;;;;;;;12.88;8.27;;;;;;;;;;2069584;28;20112;-78
2023/10/21 06:51:58;;;;;;;17.45;8.05;;;;;;;;;;2064284;28;20026;-78
2023/10/21 06:53:19;;;;;;;14.73;8.35;;;;;;;;;;2064193;28;20026;-78
2023/10/21 06:54:40;;;;;;;14.13;7.40;;;;;;;;;;2061333;28;20422;-78
2023/10/21 06:56:01;;;;;;;13.18;7.90;;;;;;;;;;2064147;28;20037;-78
2023/10/21 06:57:22;;;;;;;12.73;8.00;;;;;;;;;;2063472;28;20026;-78
2023/10/21 06:58:47;;;;;;;16.52;7.45;;;;;;;;;;2068857;28;20026;-78
2023/10/21 07:00:08;;;;;;;11.27;7.90;;;;;;;;;;2064215;28;20445;-77
2023/10/21 07:01:30;;;;;;;13.35;7.68;;;;;;;;;;2060773;28;20041;-78
2023/10/21 07:02:51;;;;;;;11.13;6.85;;;;;;;;;;2059789;28;20524;-77
2023/10/21 07:04:13;;;;;;;11.15;6.75;;;;;;;;;;2062542;28;20043;-77
2023/10/21 07:05:35;;;;;;;11.90;6.60;;;;;;;;;;2064053;28;20104;-77
2023/10/21 07:06:56;;;;;;;13.57;6.23;;;;;;;;;;2064859;28;20026;-78
2023/10/21 07:08:16;;;;;;;10.02;7.00;;;;;;;;;;2067342;28;20419;-77
2023/10/21 07:09:37;;;;;;;12.75;8.32;;;;;;;;;;2061685;28;20033;-77
2023/10/21 07:10:58;;;;;;;16.50;7.72;;;;;;;;;;2068656;28;20102;-78
2023/10/21 07:12:19;;;;;;;12.27;7.22;;;;;;;;;;2066382;28;20359;-77
2023/10/21 07:13:42;;;;;;;10.77;6.10;;;;;;;;;;2063328;28;20111;-76
2023/10/21 07:15:04;;;;;;;14.32;7.03;;;;;;;;;;2058338;28;20097;-78
2023/10/21 07:16:25;;;;;;;10.75;6.82;;;;;;;;;;2069552;28;20037;-77
2023/10/21 07:17:46;;;;;;;13.00;7.43;;;;;;;;;;2057625;28;20038;-78
2023/10/21 07:19:07;;;;;;;11.65;6.80;;;;;;;;;;2067199;28;20450;-78
2023/10/21 07:20:28;;;;;;;14.85;7.13;;;;;;;;;;2057193;28;20473;-78
2023/10/21 07:21:49;;;;;;;11.07;6.38;;;;;;;;;;2058594;28;20030;-77
2023/10/21 07:23:12;;;;;;;8.40;6.78;;;;;;;;;;2060411;28;20046;-77
2023/10/21 07:24:33;;;;;;;12.63;6.18;;;;;;;;;;2061485;28;20042;-78
2023/10/21 07:25:54;;;;;;;10.27;6.15;;;;;;;;;;2061698;28;20382;-78
2023/10/21 07:27:15;;;;;;;10.00;6.13;;;;;;;;;;2068334;28;20042;-77
2023/10/21 07:28:36;;;;;;;18.30;5.85;;;;;;;;;;2063485;28;20435;-77
2023/10/21 07:29:57;;;;;;;12.85;5.88;;;;;;;;;;2055756;28;20046;-77
2023/10/21 07:31:18;;;;;;;8.90;6.13;;;;;;;;;;2061814;28;20389;-78
2023/10/21 07:32:39;;;;;;;10.75;5.50;;;;;;;;;;2063790;28;20034;-78
2023/10/21 07:34:02;;;;;;;9.90;7.00;;;;;;;;;;2064286;28;20078;-79
2023/10/21 07:35:23;;;;;;;11.05;6.60;;;;;;;;;;2064877;28;20063;-78
2023/10/21 07:36:44;;;;;;;10.02;6.28;;;;;;;;;;2069853;28;20029;-79
2023/10/21 07:38:05;;;;;;;8.57;6.03;;;;;;;;;;2065712;28;20029;-79
2023/10/21 07:39:26;;;;;;;11.43;7.25;;;;;;;;;;2067261;28;20085;-78
2023/10/21 07:40:47;;;;;;;9.50;6.30;;;;;;;;;;2065743;28;20417;-76
2023/10/21 07:42:08;;;;;;;6.00;5.40;;;;;;;;;;2057620;28;20034;-75
2023/10/21 07:43:29;;;;;;;7.88;5.68;;;;;;;;;;2057096;28;20042;-76
2023/10/21 07:44:50;;;;;;;5.65;5.10;;;;;;;;;;2054215;28;20494;-76
2023/10/21 07:46:11;;;;;;;6.60;5.05;;;;;;;;;;2054161;28;20035;-76
2023/10/21 07:47:33;;;;;;;7.28;4.80;;;;;;;;;;2067671;28;20077;-76
2023/10/21 07:48:54;;;;;;;5.63;4.95;;;;;;;;;;2061530;28;20027;-76
2023/10/21 07:50:16;;;;;;;9.07;5.10;;;;;;;;;;2059351;28;20029;-76
2023/10/21 07:51:37;;;;;;;5.15;4.65;;;;;;;;;;2072642;28;20026;-76
2023/10/21 07:52:58;;;;;;;5.60;5.05;;;;;;;;;;2063810;28;20335;-78
2023/10/21 07:54:19;;;;;;;10.30;5.07;;;;;;;;;;2063748;28;20084;-78
2023/10/21 07:55:40;;;;;;;6.30;4.97;;;;;;;;;;2064939;28;20030;-78
2023/10/21 07:57:01;;;;;;;5.82;5.20;;;;;;;;;;2058094;28;20553;-78
2023/10/21 07:58:23;;;;;;;5.38;4.60;;;;;;;;;;2068316;28;20049;-78